sensor_id;sensor_type;location;lat;lon;timestamp;P1;durP1;ratioP1;P2;durP2;ratioP2
22628;SDS011;11481;53.694;9.910;2023-07-31T00:01:24;6.40;;;1.42;;
22628;SDS011;11481;53.694;9.910;2023-07-31T00:03:51;4.90;;;1.40;;
22628;SDS011;11481;53.694;9.910;2023-07-31T00:06:17;2.30;;;1.17;;
22628;SDS011;11481;53.694;9.910;2023-07-31T00:08:44;3.00;;;1.45;;
22628;SDS011;11481;53.694;9.910;2023-07-31T00:11:11;6.80;;;1.63;;
22628;SDS011;11481;53.694;9.910;2023-07-31T00:13:37;4.50;;;1.55;;
22628;SDS011;11481;53.694;9.910;2023-07-31T00:16:04;4.00;;;1.38;;
22628;SDS011;11481;53.694;9.910;2023-07-31T00:18:31;2.42;;;1.40;;
22628;SDS011;11481;53.694;9.910;2023-07-31T00:20:57;4.80;;;1.50;;
22628;SDS011;11481;53.694;9.910;2023-07-31T00:23:24;6.68;;;1.40;;
22628;SDS011;11481;53.694;9.910;2023-07-31T00:25:51;4.35;;;1.50;;
22628;SDS011;11481;53.694;9.910;2023-07-31T00:28:17;6.75;;;1.77;;
22628;SDS011;11481;53.694;9.910;2023-07-31T00:30:44;4.90;;;1.50;;
22628;SDS011;11481;53.694;9.910;2023-07-31T00:33:11;3.85;;;1.60;;
22628;SDS011;11481;53.694;9.910;2023-07-31T00:35:37;5.93;;;1.88;;
22628;SDS011;11481;53.694;9.910;2023-07-31T00:38:04;9.40;;;1.92;;
22628;SDS011;11481;53.694;9.910;2023-07-31T00:40:34;5.85;;;1.98;;
22628;SDS011;11481;53.694;9.910;2023-07-31T00:43:03;4.43;;;1.70;;
22628;SDS011;11481;53.694;9.910;2023-07-31T00:45:30;6.68;;;1.70;;
22628;SDS011;11481;53.694;9.910;2023-07-31T00:47:57;5.40;;;1.70;;
22628;SDS011;11481;53.694;9.910;2023-07-31T00:50:25;5.47;;;1.83;;
22628;SDS011;11481;53.694;9.910;2023-07-31T00:52:53;5.78;;;1.88;;
22628;SDS011;11481;53.694;9.910;2023-07-31T00:55:20;4.13;;;1.63;;
22628;SDS011;11481;53.694;9.910;2023-07-31T00:57:47;5.63;;;1.92;;
22628;SDS011;11481;53.694;9.910;2023-07-31T01:00:15;4.60;;;1.58;;
22628;SDS011;11481;53.694;9.910;2023-07-31T01:02:42;5.13;;;1.48;;
22628;SDS011;11481;53.694;9.910;2023-07-31T01:05:09;10.70;;;1.70;;
22628;SDS011;11481;53.694;9.910;2023-07-31T01:07:44;6.30;;;1.45;;
22628;SDS011;11481;53.694;9.910;2023-07-31T01:10:37;4.53;;;1.48;;
22628;SDS011;11481;53.694;9.910;2023-07-31T01:13:17;8.27;;;1.67;;
22628;SDS011;11481;53.694;9.910;2023-07-31T01:15:44;9.20;;;1.77;;
22628;SDS011;11481;53.694;9.910;2023-07-31T01:18:10;7.00;;;1.60;;
22628;SDS011;11481;53.694;9.910;2023-07-31T01:20:37;5.10;;;2.17;;
22628;SDS011;11481;53.694;9.910;2023-07-31T01:26:19;6.43;;;1.85;;
22628;SDS011;11481;53.694;9.910;2023-07-31T01:29:01;3.42;;;1.60;;
22628;SDS011;11481;53.694;9.910;2023-07-31T01:31:35;9.77;;;2.10;;
22628;SDS011;11481;53.694;9.910;2023-07-31T01:34:04;6.45;;;1.60;;
22628;SDS011;11481;53.694;9.910;2023-07-31T01:36:32;4.30;;;1.60;;
22628;SDS011;11481;53.694;9.910;2023-07-31T01:38:59;5.47;;;2.00;;
22628;SDS011;11481;53.694;9.910;2023-07-31T01:41:26;5.80;;;1.58;;
22628;SDS011;11481;53.694;9.910;2023-07-31T01:43:53;4.57;;;1.67;;
22628;SDS011;11481;53.694;9.910;2023-07-31T01:46:20;4.70;;;1.83;;
22628;SDS011;11481;53.694;9.910;2023-07-31T01:48:47;6.57;;;1.80;;
22628;SDS011;11481;53.694;9.910;2023-07-31T01:51:13;7.35;;;2.00;;
22628;SDS011;11481;53.694;9.910;2023-07-31T01:53:40;5.72;;;1.95;;
22628;SDS011;11481;53.694;9.910;2023-07-31T01:56:06;5.22;;;1.45;;
22628;SDS011;11481;53.694;9.910;2023-07-31T01:58:33;10.45;;;2.50;;
22628;SDS011;11481;53.694;9.910;2023-07-31T02:01:00;5.10;;;1.83;;
22628;SDS011;11481;53.694;9.910;2023-07-31T02:03:26;6.50;;;1.98;;
22628;SDS011;11481;53.694;9.910;2023-07-31T02:05:53;5.10;;;1.80;;
22628;SDS011;11481;53.694;9.910;2023-07-31T02:08:20;5.38;;;1.67;;
22628;SDS011;11481;53.694;9.910;2023-07-31T02:10:47;7.90;;;1.85;;
22628;SDS011;11481;53.694;9.910;2023-07-31T02:13:14;7.82;;;2.25;;
22628;SDS011;11481;53.694;9.910;2023-07-31T02:15:40;4.78;;;1.80;;
22628;SDS011;11481;53.694;9.910;2023-07-31T02:18:07;6.03;;;2.10;;
22628;SDS011;11481;53.694;9.910;2023-07-31T02:20:34;4.55;;;1.77;;
22628;SDS011;11481;53.694;9.910;2023-07-31T02:23:01;4.18;;;2.05;;
22628;SDS011;11481;53.694;9.910;2023-07-31T02:25:28;5.88;;;2.30;;
22628;SDS011;11481;53.694;9.910;2023-07-31T02:27:55;6.00;;;2.15;;
22628;SDS011;11481;53.694;9.910;2023-07-31T02:30:22;9.77;;;2.50;;
22628;SDS011;11481;53.694;9.910;2023-07-31T02:32:49;7.18;;;2.20;;
22628;SDS011;11481;53.694;9.910;2023-07-31T02:35:15;4.68;;;2.40;;
22628;SDS011;11481;53.694;9.910;2023-07-31T02:37:42;5.22;;;2.08;;
22628;SDS011;11481;53.694;9.910;2023-07-31T02:40:09;2.85;;;1.63;;
22628;SDS011;11481;53.694;9.910;2023-07-31T02:42:36;5.38;;;2.13;;
22628;SDS011;11481;53.694;9.910;2023-07-31T02:45:03;9.25;;;2.70;;
22628;SDS011;11481;53.694;9.910;2023-07-31T02:47:30;5.68;;;2.10;;
22628;SDS011;11481;53.694;9.910;2023-07-31T02:49:56;7.30;;;2.13;;
22628;SDS011;11481;53.694;9.910;2023-07-31T02:52:23;5.60;;;2.17;;
22628;SDS011;11481;53.694;9.910;2023-07-31T02:54:50;6.22;;;2.25;;
22628;SDS011;11481;53.694;9.910;2023-07-31T02:57:16;5.95;;;2.20;;
22628;SDS011;11481;53.694;9.910;2023-07-31T02:59:43;6.75;;;2.50;;
22628;SDS011;11481;53.694;9.910;2023-07-31T03:02:10;4.00;;;2.08;;
22628;SDS011;11481;53.694;9.910;2023-07-31T03:04:37;8.30;;;2.67;;
22628;SDS011;11481;53.694;9.910;2023-07-31T03:07:04;7.45;;;2.55;;
22628;SDS011;11481;53.694;9.910;2023-07-31T03:09:31;5.00;;;2.28;;
22628;SDS011;11481;53.694;9.910;2023-07-31T03:11:58;3.90;;;2.20;;
22628;SDS011;11481;53.694;9.910;2023-07-31T03:14:24;5.60;;;2.45;;
22628;SDS011;11481;53.694;9.910;2023-07-31T03:16:53;4.68;;;2.15;;
22628;SDS011;11481;53.694;9.910;2023-07-31T03:19:20;5.40;;;2.60;;
22628;SDS011;11481;53.694;9.910;2023-07-31T03:21:46;5.43;;;2.75;;
22628;SDS011;11481;53.694;9.910;2023-07-31T03:24:13;5.15;;;2.35;;
22628;SDS011;11481;53.694;9.910;2023-07-31T03:26:40;7.65;;;2.63;;
22628;SDS011;11481;53.694;9.910;2023-07-31T03:29:07;7.25;;;2.28;;
22628;SDS011;11481;53.694;9.910;2023-07-31T03:31:34;9.38;;;2.47;;
22628;SDS011;11481;53.694;9.910;2023-07-31T03:34:01;7.72;;;2.47;;
22628;SDS011;11481;53.694;9.910;2023-07-31T03:36:28;7.10;;;2.38;;
22628;SDS011;11481;53.694;9.910;2023-07-31T03:38:54;7.53;;;2.95;;
22628;SDS011;11481;53.694;9.910;2023-07-31T03:41:21;6.50;;;2.72;;
22628;SDS011;11481;53.694;9.910;2023-07-31T03:43:49;11.57;;;3.10;;
22628;SDS011;11481;53.694;9.910;2023-07-31T03:46:19;9.52;;;2.45;;
22628;SDS011;11481;53.694;9.910;2023-07-31T03:48:46;4.82;;;2.53;;
22628;SDS011;11481;53.694;9.910;2023-07-31T03:51:13;5.45;;;2.30;;
22628;SDS011;11481;53.694;9.910;2023-07-31T03:53:40;5.20;;;2.45;;
22628;SDS011;11481;53.694;9.910;2023-07-31T03:56:07;4.72;;;2.47;;
22628;SDS011;11481;53.694;9.910;2023-07-31T03:58:33;7.72;;;2.75;;
22628;SDS011;11481;53.694;9.910;2023-07-31T04:01:01;6.15;;;2.50;;
22628;SDS011;11481;53.694;9.910;2023-07-31T04:03:28;4.75;;;2.50;;
22628;SDS011;11481;53.694;9.910;2023-07-31T04:05:55;11.15;;;2.47;;
22628;SDS011;11481;53.694;9.910;2023-07-31T04:08:22;4.28;;;2.08;;
22628;SDS011;11481;53.694;9.910;2023-07-31T04:10:49;7.25;;;2.60;;
22628;SDS011;11481;53.694;9.910;2023-07-31T04:13:16;8.77;;;2.53;;
22628;SDS011;11481;53.694;9.910;2023-07-31T04:15:47;5.43;;;2.40;;
22628;SDS011;11481;53.694;9.910;2023-07-31T04:18:16;5.05;;;3.00;;
22628;SDS011;11481;53.694;9.910;2023-07-31T04:20:43;4.57;;;2.38;;
22628;SDS011;11481;53.694;9.910;2023-07-31T04:23:09;5.25;;;2.75;;
22628;SDS011;11481;53.694;9.910;2023-07-31T04:25:36;6.65;;;2.78;;
22628;SDS011;11481;53.694;9.910;2023-07-31T04:28:03;6.53;;;2.63;;
22628;SDS011;11481;53.694;9.910;2023-07-31T04:30:29;7.30;;;2.75;;
22628;SDS011;11481;53.694;9.910;2023-07-31T04:32:56;4.88;;;2.80;;
22628;SDS011;11481;53.694;9.910;2023-07-31T04:35:23;8.27;;;3.15;;
22628;SDS011;11481;53.694;9.910;2023-07-31T04:37:49;6.68;;;3.00;;
22628;SDS011;11481;53.694;9.910;2023-07-31T04:40:16;10.65;;;3.20;;
22628;SDS011;11481;53.694;9.910;2023-07-31T04:42:43;6.38;;;3.45;;
22628;SDS011;11481;53.694;9.910;2023-07-31T04:45:09;7.35;;;3.30;;
22628;SDS011;11481;53.694;9.910;2023-07-31T04:47:36;6.57;;;2.70;;
22628;SDS011;11481;53.694;9.910;2023-07-31T04:50:03;6.88;;;3.03;;
22628;SDS011;11481;53.694;9.910;2023-07-31T04:52:30;7.15;;;3.13;;
22628;SDS011;11481;53.694;9.910;2023-07-31T04:54:56;8.40;;;3.35;;
22628;SDS011;11481;53.694;9.910;2023-07-31T04:57:23;4.80;;;2.53;;
22628;SDS011;11481;53.694;9.910;2023-07-31T04:59:49;5.55;;;3.28;;
22628;SDS011;11481;53.694;9.910;2023-07-31T05:02:16;4.28;;;2.78;;
22628;SDS011;11481;53.694;9.910;2023-07-31T05:04:45;5.78;;;2.90;;
22628;SDS011;11481;53.694;9.910;2023-07-31T05:07:12;4.82;;;2.92;;
22628;SDS011;11481;53.694;9.910;2023-07-31T05:09:39;5.78;;;3.13;;
22628;SDS011;11481;53.694;9.910;2023-07-31T05:12:06;5.28;;;2.63;;
22628;SDS011;11481;53.694;9.910;2023-07-31T05:14:33;6.38;;;3.25;;
22628;SDS011;11481;53.694;9.910;2023-07-31T05:16:59;5.15;;;2.95;;
22628;SDS011;11481;53.694;9.910;2023-07-31T05:19:26;5.68;;;3.35;;
22628;SDS011;11481;53.694;9.910;2023-07-31T05:21:54;5.13;;;3.22;;
22628;SDS011;11481;53.694;9.910;2023-07-31T05:24:21;6.10;;;2.90;;
22628;SDS011;11481;53.694;9.910;2023-07-31T05:26:48;4.03;;;2.53;;
22628;SDS011;11481;53.694;9.910;2023-07-31T05:29:14;6.25;;;2.92;;
22628;SDS011;11481;53.694;9.910;2023-07-31T05:31:42;4.68;;;2.85;;
22628;SDS011;11481;53.694;9.910;2023-07-31T05:34:09;6.38;;;3.40;;
22628;SDS011;11481;53.694;9.910;2023-07-31T05:36:37;5.63;;;3.08;;
22628;SDS011;11481;53.694;9.910;2023-07-31T05:39:04;4.80;;;2.90;;
22628;SDS011;11481;53.694;9.910;2023-07-31T05:41:34;4.72;;;2.70;;
22628;SDS011;11481;53.694;9.910;2023-07-31T05:44:02;4.97;;;2.55;;
22628;SDS011;11481;53.694;9.910;2023-07-31T05:46:28;5.72;;;3.10;;
22628;SDS011;11481;53.694;9.910;2023-07-31T05:48:58;4.05;;;2.47;;
22628;SDS011;11481;53.694;9.910;2023-07-31T05:51:27;3.78;;;2.28;;
22628;SDS011;11481;53.694;9.910;2023-07-31T05:53:54;4.25;;;2.90;;
22628;SDS011;11481;53.694;9.910;2023-07-31T05:56:21;5.32;;;2.85;;
22628;SDS011;11481;53.694;9.910;2023-07-31T05:58:47;5.43;;;2.78;;
22628;SDS011;11481;53.694;9.910;2023-07-31T06:01:15;5.13;;;3.05;;
22628;SDS011;11481;53.694;9.910;2023-07-31T06:03:43;4.53;;;2.80;;
22628;SDS011;11481;53.694;9.910;2023-07-31T06:06:10;4.38;;;2.67;;
22628;SDS011;11481;53.694;9.910;2023-07-31T06:08:37;7.32;;;3.08;;
22628;SDS011;11481;53.694;9.910;2023-07-31T06:11:03;5.68;;;2.90;;
22628;SDS011;11481;53.694;9.910;2023-07-31T06:13:30;5.18;;;2.95;;
22628;SDS011;11481;53.694;9.910;2023-07-31T06:15:59;3.88;;;2.67;;
22628;SDS011;11481;53.694;9.910;2023-07-31T06:18:26;3.75;;;2.60;;
22628;SDS011;11481;53.694;9.910;2023-07-31T06:20:53;4.63;;;2.53;;
22628;SDS011;11481;53.694;9.910;2023-07-31T06:23:20;3.55;;;2.20;;
22628;SDS011;11481;53.694;9.910;2023-07-31T06:25:46;4.45;;;2.45;;
22628;SDS011;11481;53.694;9.910;2023-07-31T06:28:13;3.80;;;2.08;;
22628;SDS011;11481;53.694;9.910;2023-07-31T06:30:40;3.25;;;2.15;;
22628;SDS011;11481;53.694;9.910;2023-07-31T06:33:07;4.13;;;2.30;;
22628;SDS011;11481;53.694;9.910;2023-07-31T06:35:35;3.45;;;2.17;;
22628;SDS011;11481;53.694;9.910;2023-07-31T06:38:03;4.93;;;2.33;;
22628;SDS011;11481;53.694;9.910;2023-07-31T06:40:30;3.63;;;2.22;;
22628;SDS011;11481;53.694;9.910;2023-07-31T06:42:57;3.42;;;2.10;;
22628;SDS011;11481;53.694;9.910;2023-07-31T06:45:24;3.63;;;2.63;;
22628;SDS011;11481;53.694;9.910;2023-07-31T06:47:51;3.95;;;2.53;;
22628;SDS011;11481;53.694;9.910;2023-07-31T06:50:17;3.97;;;2.40;;
22628;SDS011;11481;53.694;9.910;2023-07-31T06:52:46;4.57;;;2.70;;
22628;SDS011;11481;53.694;9.910;2023-07-31T06:55:16;4.25;;;2.40;;
22628;SDS011;11481;53.694;9.910;2023-07-31T06:57:45;4.43;;;2.75;;
22628;SDS011;11481;53.694;9.910;2023-07-31T07:00:16;4.47;;;2.10;;
22628;SDS011;11481;53.694;9.910;2023-07-31T07:02:44;4.30;;;2.08;;
22628;SDS011;11481;53.694;9.910;2023-07-31T07:05:10;3.83;;;2.10;;
22628;SDS011;11481;53.694;9.910;2023-07-31T07:07:37;3.72;;;2.42;;
22628;SDS011;11481;53.694;9.910;2023-07-31T07:10:04;4.18;;;2.50;;
22628;SDS011;11481;53.694;9.910;2023-07-31T07:12:32;4.32;;;2.67;;
22628;SDS011;11481;53.694;9.910;2023-07-31T07:14:59;5.13;;;2.03;;
22628;SDS011;11481;53.694;9.910;2023-07-31T07:17:27;5.07;;;2.80;;
22628;SDS011;11481;53.694;9.910;2023-07-31T07:20:00;3.90;;;2.55;;
22628;SDS011;11481;53.694;9.910;2023-07-31T07:22:27;4.65;;;2.33;;
22628;SDS011;11481;53.694;9.910;2023-07-31T07:24:55;4.13;;;2.78;;
22628;SDS011;11481;53.694;9.910;2023-07-31T07:27:22;3.72;;;2.40;;
22628;SDS011;11481;53.694;9.910;2023-07-31T07:29:50;3.78;;;2.28;;
22628;SDS011;11481;53.694;9.910;2023-07-31T07:32:18;4.20;;;2.63;;
22628;SDS011;11481;53.694;9.910;2023-07-31T07:34:45;3.65;;;2.28;;
22628;SDS011;11481;53.694;9.910;2023-07-31T07:37:13;3.35;;;2.25;;
22628;SDS011;11481;53.694;9.910;2023-07-31T07:39:40;4.72;;;2.40;;
22628;SDS011;11481;53.694;9.910;2023-07-31T07:42:08;3.47;;;2.22;;
22628;SDS011;11481;53.694;9.910;2023-07-31T07:44:37;3.08;;;1.70;;
22628;SDS011;11481;53.694;9.910;2023-07-31T07:47:04;3.33;;;1.67;;
22628;SDS011;11481;53.694;9.910;2023-07-31T07:49:35;3.80;;;2.03;;
22628;SDS011;11481;53.694;9.910;2023-07-31T07:52:02;3.92;;;2.08;;
22628;SDS011;11481;53.694;9.910;2023-07-31T07:54:29;2.85;;;1.70;;
22628;SDS011;11481;53.694;9.910;2023-07-31T07:56:57;2.80;;;1.83;;
22628;SDS011;11481;53.694;9.910;2023-07-31T07:59:23;2.70;;;1.50;;
22628;SDS011;11481;53.694;9.910;2023-07-31T08:01:50;3.20;;;1.90;;
22628;SDS011;11481;53.694;9.910;2023-07-31T08:04:17;4.28;;;2.30;;
22628;SDS011;11481;53.694;9.910;2023-07-31T08:06:45;3.78;;;2.30;;
22628;SDS011;11481;53.694;9.910;2023-07-31T08:09:11;4.13;;;2.60;;
22628;SDS011;11481;53.694;9.910;2023-07-31T08:11:38;3.70;;;2.30;;
22628;SDS011;11481;53.694;9.910;2023-07-31T08:14:06;3.65;;;2.40;;
22628;SDS011;11481;53.694;9.910;2023-07-31T08:16:35;3.78;;;2.45;;
22628;SDS011;11481;53.694;9.910;2023-07-31T08:19:04;3.50;;;2.58;;
22628;SDS011;11481;53.694;9.910;2023-07-31T08:21:31;3.70;;;2.47;;
22628;SDS011;11481;53.694;9.910;2023-07-31T08:23:58;4.03;;;2.15;;
22628;SDS011;11481;53.694;9.910;2023-07-31T08:26:24;3.25;;;2.22;;
22628;SDS011;11481;53.694;9.910;2023-07-31T08:28:51;3.67;;;2.15;;
22628;SDS011;11481;53.694;9.910;2023-07-31T08:31:18;4.15;;;2.47;;
22628;SDS011;11481;53.694;9.910;2023-07-31T08:33:45;3.42;;;2.22;;
22628;SDS011;11481;53.694;9.910;2023-07-31T08:36:12;3.22;;;2.05;;
22628;SDS011;11481;53.694;9.910;2023-07-31T08:38:40;3.60;;;2.10;;
22628;SDS011;11481;53.694;9.910;2023-07-31T08:41:07;3.38;;;2.20;;
22628;SDS011;11481;53.694;9.910;2023-07-31T08:43:34;2.72;;;2.05;;
22628;SDS011;11481;53.694;9.910;2023-07-31T08:46:02;4.63;;;2.08;;
22628;SDS011;11481;53.694;9.910;2023-07-31T08:48:32;2.83;;;1.90;;
22628;SDS011;11481;53.694;9.910;2023-07-31T08:50:59;2.70;;;1.83;;
22628;SDS011;11481;53.694;9.910;2023-07-31T08:53:26;5.88;;;1.95;;
22628;SDS011;11481;53.694;9.910;2023-07-31T08:55:52;2.05;;;1.25;;
22628;SDS011;11481;53.694;9.910;2023-07-31T08:58:20;2.47;;;1.40;;
22628;SDS011;11481;53.694;9.910;2023-07-31T09:00:47;1.60;;;1.10;;
22628;SDS011;11481;53.694;9.910;2023-07-31T09:03:19;2.08;;;1.40;;
22628;SDS011;11481;53.694;9.910;2023-07-31T09:05:51;2.20;;;1.40;;
22628;SDS011;11481;53.694;9.910;2023-07-31T09:08:20;2.08;;;1.35;;
22628;SDS011;11481;53.694;9.910;2023-07-31T09:10:48;2.13;;;1.17;;
22628;SDS011;11481;53.694;9.910;2023-07-31T09:13:17;1.92;;;1.10;;
22628;SDS011;11481;53.694;9.910;2023-07-31T09:15:45;2.00;;;1.08;;
22628;SDS011;11481;53.694;9.910;2023-07-31T09:18:12;2.13;;;1.40;;
22628;SDS011;11481;53.694;9.910;2023-07-31T09:20:43;2.95;;;1.45;;
22628;SDS011;11481;53.694;9.910;2023-07-31T09:23:13;2.10;;;1.30;;
22628;SDS011;11481;53.694;9.910;2023-07-31T09:25:43;2.05;;;1.27;;
22628;SDS011;11481;53.694;9.910;2023-07-31T09:28:10;1.63;;;1.10;;
22628;SDS011;11481;53.694;9.910;2023-07-31T09:30:45;1.77;;;1.30;;
22628;SDS011;11481;53.694;9.910;2023-07-31T09:33:17;3.15;;;1.33;;
22628;SDS011;11481;53.694;9.910;2023-07-31T09:35:45;2.38;;;1.20;;
22628;SDS011;11481;53.694;9.910;2023-07-31T09:38:14;1.70;;;0.90;;
22628;SDS011;11481;53.694;9.910;2023-07-31T09:40:46;1.75;;;1.02;;
22628;SDS011;11481;53.694;9.910;2023-07-31T09:43:20;1.67;;;0.85;;
22628;SDS011;11481;53.694;9.910;2023-07-31T09:45:48;1.10;;;0.57;;
22628;SDS011;11481;53.694;9.910;2023-07-31T09:48:19;1.70;;;0.90;;
22628;SDS011;11481;53.694;9.910;2023-07-31T09:50:47;1.65;;;0.90;;
22628;SDS011;11481;53.694;9.910;2023-07-31T09:53:16;1.77;;;0.90;;
22628;SDS011;11481;53.694;9.910;2023-07-31T09:55:43;2.42;;;0.90;;
22628;SDS011;11481;53.694;9.910;2023-07-31T09:58:11;1.85;;;1.02;;
22628;SDS011;11481;53.694;9.910;2023-07-31T10:00:38;2.00;;;0.63;;
22628;SDS011;11481;53.694;9.910;2023-07-31T10:03:06;1.63;;;0.90;;
22628;SDS011;11481;53.694;9.910;2023-07-31T10:05:38;1.40;;;0.60;;
22628;SDS011;11481;53.694;9.910;2023-07-31T10:08:09;1.95;;;0.88;;
22628;SDS011;11481;53.694;9.910;2023-07-31T10:10:43;1.58;;;0.80;;
22628;SDS011;11481;53.694;9.910;2023-07-31T10:13:12;0.95;;;0.60;;
22628;SDS011;11481;53.694;9.910;2023-07-31T10:15:40;1.05;;;0.50;;
22628;SDS011;11481;53.694;9.910;2023-07-31T10:18:10;1.58;;;0.40;;
22628;SDS011;11481;53.694;9.910;2023-07-31T10:20:38;1.33;;;0.60;;
22628;SDS011;11481;53.694;9.910;2023-07-31T10:23:06;0.88;;;0.50;;
22628;SDS011;11481;53.694;9.910;2023-07-31T10:25:33;0.55;;;0.30;;
22628;SDS011;11481;53.694;9.910;2023-07-31T10:28:03;1.83;;;0.50;;
22628;SDS011;11481;53.694;9.910;2023-07-31T10:30:32;0.65;;;0.30;;
22628;SDS011;11481;53.694;9.910;2023-07-31T10:33:01;1.00;;;0.38;;
22628;SDS011;11481;53.694;9.910;2023-07-31T10:35:30;0.43;;;0.30;;
22628;SDS011;11481;53.694;9.910;2023-07-31T10:38:08;0.93;;;0.25;;
22628;SDS011;11481;53.694;9.910;2023-07-31T10:40:39;1.02;;;0.50;;
22628;SDS011;11481;53.694;9.910;2023-07-31T10:43:06;0.63;;;0.30;;
22628;SDS011;11481;53.694;9.910;2023-07-31T10:45:38;0.80;;;0.35;;
22628;SDS011;11481;53.694;9.910;2023-07-31T10:48:14;0.45;;;0.30;;
22628;SDS011;11481;53.694;9.910;2023-07-31T10:50:46;1.85;;;0.40;;
22628;SDS011;11481;53.694;9.910;2023-07-31T10:53:28;0.77;;;0.40;;
22628;SDS011;11481;53.694;9.910;2023-07-31T10:56:04;1.33;;;0.50;;
22628;SDS011;11481;53.694;9.910;2023-07-31T10:58:32;1.52;;;0.57;;
22628;SDS011;11481;53.694;9.910;2023-07-31T11:00:59;2.53;;;0.43;;
22628;SDS011;11481;53.694;9.910;2023-07-31T11:03:45;1.55;;;0.60;;
22628;SDS011;11481;53.694;9.910;2023-07-31T11:06:16;0.85;;;0.47;;
22628;SDS011;11481;53.694;9.910;2023-07-31T11:08:46;0.60;;;0.30;;
22628;SDS011;11481;53.694;9.910;2023-07-31T11:11:14;1.02;;;0.52;;
22628;SDS011;11481;53.694;9.910;2023-07-31T11:13:44;0.93;;;0.47;;
22628;SDS011;11481;53.694;9.910;2023-07-31T11:16:16;2.85;;;0.40;;
22628;SDS011;11481;53.694;9.910;2023-07-31T11:18:45;1.35;;;0.65;;
22628;SDS011;11481;53.694;9.910;2023-07-31T11:21:17;0.93;;;0.40;;
22628;SDS011;11481;53.694;9.910;2023-07-31T11:23:50;1.50;;;0.50;;
22628;SDS011;11481;53.694;9.910;2023-07-31T11:26:18;0.90;;;0.50;;
22628;SDS011;11481;53.694;9.910;2023-07-31T11:28:48;1.33;;;0.43;;
22628;SDS011;11481;53.694;9.910;2023-07-31T11:31:17;0.82;;;0.43;;
22628;SDS011;11481;53.694;9.910;2023-07-31T11:33:45;1.65;;;0.57;;
22628;SDS011;11481;53.694;9.910;2023-07-31T11:36:15;1.00;;;0.47;;
22628;SDS011;11481;53.694;9.910;2023-07-31T11:38:47;1.00;;;0.40;;
22628;SDS011;11481;53.694;9.910;2023-07-31T11:41:15;1.25;;;0.40;;
22628;SDS011;11481;53.694;9.910;2023-07-31T11:43:43;1.05;;;0.40;;
22628;SDS011;11481;53.694;9.910;2023-07-31T11:46:11;0.85;;;0.40;;
22628;SDS011;11481;53.694;9.910;2023-07-31T11:48:42;0.77;;;0.30;;
22628;SDS011;11481;53.694;9.910;2023-07-31T11:51:10;1.35;;;0.60;;
22628;SDS011;11481;53.694;9.910;2023-07-31T11:53:40;0.80;;;0.57;;
22628;SDS011;11481;53.694;9.910;2023-07-31T11:56:17;1.48;;;0.82;;
22628;SDS011;11481;53.694;9.910;2023-07-31T11:58:46;1.77;;;0.57;;
22628;SDS011;11481;53.694;9.910;2023-07-31T12:01:15;1.23;;;0.60;;
22628;SDS011;11481;53.694;9.910;2023-07-31T12:03:44;0.65;;;0.32;;
22628;SDS011;11481;53.694;9.910;2023-07-31T12:06:12;0.77;;;0.40;;
22628;SDS011;11481;53.694;9.910;2023-07-31T12:08:39;2.55;;;0.68;;
22628;SDS011;11481;53.694;9.910;2023-07-31T12:11:07;1.35;;;0.40;;
22628;SDS011;11481;53.694;9.910;2023-07-31T12:13:35;0.63;;;0.45;;
22628;SDS011;11481;53.694;9.910;2023-07-31T12:16:03;0.75;;;0.30;;
22628;SDS011;11481;53.694;9.910;2023-07-31T12:18:34;1.50;;;0.30;;
22628;SDS011;11481;53.694;9.910;2023-07-31T12:21:05;0.57;;;0.30;;
22628;SDS011;11481;53.694;9.910;2023-07-31T12:23:34;2.45;;;0.50;;
22628;SDS011;11481;53.694;9.910;2023-07-31T12:26:09;0.85;;;0.45;;
22628;SDS011;11481;53.694;9.910;2023-07-31T12:28:49;1.95;;;0.65;;
22628;SDS011;11481;53.694;9.910;2023-07-31T12:31:17;2.40;;;0.50;;
22628;SDS011;11481;53.694;9.910;2023-07-31T12:33:48;1.88;;;0.50;;
22628;SDS011;11481;53.694;9.910;2023-07-31T12:36:18;2.17;;;0.38;;
22628;SDS011;11481;53.694;9.910;2023-07-31T12:38:47;1.08;;;0.47;;
22628;SDS011;11481;53.694;9.910;2023-07-31T12:41:17;1.65;;;0.50;;
22628;SDS011;11481;53.694;9.910;2023-07-31T12:43:46;1.27;;;0.40;;
22628;SDS011;11481;53.694;9.910;2023-07-31T12:46:15;1.10;;;0.52;;
22628;SDS011;11481;53.694;9.910;2023-07-31T12:48:43;0.88;;;0.40;;
22628;SDS011;11481;53.694;9.910;2023-07-31T12:51:09;1.08;;;0.35;;
22628;SDS011;11481;53.694;9.910;2023-07-31T12:53:36;1.30;;;0.50;;
22628;SDS011;11481;53.694;9.910;2023-07-31T12:56:03;1.10;;;0.60;;
22628;SDS011;11481;53.694;9.910;2023-07-31T12:58:30;1.42;;;0.50;;
22628;SDS011;11481;53.694;9.910;2023-07-31T13:00:57;1.35;;;0.60;;
22628;SDS011;11481;53.694;9.910;2023-07-31T13:03:23;0.65;;;0.30;;
22628;SDS011;11481;53.694;9.910;2023-07-31T13:05:50;1.10;;;0.50;;
22628;SDS011;11481;53.694;9.910;2023-07-31T13:08:18;1.70;;;0.40;;
22628;SDS011;11481;53.694;9.910;2023-07-31T13:10:45;1.15;;;0.45;;
22628;SDS011;11481;53.694;9.910;2023-07-31T13:13:12;0.95;;;0.50;;
22628;SDS011;11481;53.694;9.910;2023-07-31T13:15:38;0.70;;;0.40;;
22628;SDS011;11481;53.694;9.910;2023-07-31T13:18:05;0.82;;;0.40;;
22628;SDS011;11481;53.694;9.910;2023-07-31T13:20:32;0.73;;;0.50;;
22628;SDS011;11481;53.694;9.910;2023-07-31T13:22:58;1.73;;;0.80;;
22628;SDS011;11481;53.694;9.910;2023-07-31T13:25:25;1.00;;;0.50;;
22628;SDS011;11481;53.694;9.910;2023-07-31T13:27:54;0.82;;;0.45;;
22628;SDS011;11481;53.694;9.910;2023-07-31T13:30:28;2.25;;;0.57;;
22628;SDS011;11481;53.694;9.910;2023-07-31T13:32:55;1.65;;;0.65;;
22628;SDS011;11481;53.694;9.910;2023-07-31T13:35:21;1.13;;;0.43;;
22628;SDS011;11481;53.694;9.910;2023-07-31T13:37:48;1.65;;;0.50;;
22628;SDS011;11481;53.694;9.910;2023-07-31T13:40:14;2.92;;;0.40;;
22628;SDS011;11481;53.694;9.910;2023-07-31T13:42:41;1.20;;;0.50;;
22628;SDS011;11481;53.694;9.910;2023-07-31T13:45:08;2.42;;;0.47;;
22628;SDS011;11481;53.694;9.910;2023-07-31T13:47:35;0.82;;;0.40;;
22628;SDS011;11481;53.694;9.910;2023-07-31T13:50:04;0.77;;;0.47;;
22628;SDS011;11481;53.694;9.910;2023-07-31T13:52:31;1.02;;;0.60;;
22628;SDS011;11481;53.694;9.910;2023-07-31T13:54:57;0.80;;;0.30;;
22628;SDS011;11481;53.694;9.910;2023-07-31T13:57:24;2.08;;;0.40;;
22628;SDS011;11481;53.694;9.910;2023-07-31T13:59:50;2.15;;;0.47;;
22628;SDS011;11481;53.694;9.910;2023-07-31T14:02:18;2.47;;;0.68;;
22628;SDS011;11481;53.694;9.910;2023-07-31T14:04:45;4.05;;;0.65;;
22628;SDS011;11481;53.694;9.910;2023-07-31T14:07:13;0.82;;;0.43;;
22628;SDS011;11481;53.694;9.910;2023-07-31T14:09:40;1.63;;;0.40;;
22628;SDS011;11481;53.694;9.910;2023-07-31T14:12:06;1.77;;;0.60;;
22628;SDS011;11481;53.694;9.910;2023-07-31T14:14:33;2.08;;;1.15;;
22628;SDS011;11481;53.694;9.910;2023-07-31T14:17:02;1.23;;;0.60;;
22628;SDS011;11481;53.694;9.910;2023-07-31T14:19:29;1.85;;;0.40;;
22628;SDS011;11481;53.694;9.910;2023-07-31T14:22:00;1.02;;;0.40;;
22628;SDS011;11481;53.694;9.910;2023-07-31T14:24:36;1.70;;;0.60;;
22628;SDS011;11481;53.694;9.910;2023-07-31T14:27:03;1.20;;;0.50;;
22628;SDS011;11481;53.694;9.910;2023-07-31T14:29:30;0.90;;;0.35;;
22628;SDS011;11481;53.694;9.910;2023-07-31T14:31:59;0.68;;;0.38;;
22628;SDS011;11481;53.694;9.910;2023-07-31T14:34:26;0.57;;;0.30;;
22628;SDS011;11481;53.694;9.910;2023-07-31T14:36:53;1.67;;;0.40;;
22628;SDS011;11481;53.694;9.910;2023-07-31T14:39:20;2.95;;;0.32;;
22628;SDS011;11481;53.694;9.910;2023-07-31T14:41:47;0.65;;;0.38;;
22628;SDS011;11481;53.694;9.910;2023-07-31T14:44:14;1.48;;;0.40;;
22628;SDS011;11481;53.694;9.910;2023-07-31T14:46:41;0.65;;;0.30;;
22628;SDS011;11481;53.694;9.910;2023-07-31T14:49:08;0.30;;;0.20;;
22628;SDS011;11481;53.694;9.910;2023-07-31T14:51:34;1.30;;;0.30;;
22628;SDS011;11481;53.694;9.910;2023-07-31T14:54:01;0.80;;;0.30;;
22628;SDS011;11481;53.694;9.910;2023-07-31T14:56:28;1.10;;;0.30;;